createdAt,value
2023-01-20T00:02:20.711Z,98428.03
2023-01-20T00:04:49.672Z,98429.25
2023-01-20T00:07:16.504Z,98422.84
2023-01-20T00:09:43.298Z,98430.28
2023-01-20T00:12:10.224Z,98420.22
2023-01-20T00:14:37.148Z,98429.09
2023-01-20T00:17:04.023Z,98423.94
2023-01-20T00:19:30.913Z,98416.28
2023-01-20T00:21:58.067Z,98417.09
2023-01-20T00:24:25.108Z,98425.09
2023-01-20T00:26:52.000Z,98420.66
2023-01-20T00:29:18.896Z,98433.47
2023-01-20T00:31:45.950Z,98432.75
2023-01-20T00:34:12.864Z,98427.94
2023-01-20T00:36:39.854Z,98429.63
2023-01-20T00:39:06.760Z,98412.78
2023-01-20T00:41:33.750Z,98417.31
2023-01-20T00:44:00.725Z,98423.56
2023-01-20T00:46:28.242Z,98418.47
2023-01-20T00:48:55.194Z,98409.72
2023-01-20T00:51:22.153Z,98420.59
2023-01-20T00:53:49.013Z,98407.25
2023-01-20T00:56:16.029Z,98415.28
2023-01-20T00:58:44.661Z,98416.44
2023-01-20T01:01:12.563Z,98422.19
2023-01-20T01:03:39.631Z,98406.09
2023-01-20T01:06:13.322Z,98417.97
2023-01-20T01:08:40.848Z,98421.97
2023-01-20T01:11:08.205Z,98410.16
2023-01-20T01:13:36.061Z,98404.56
2023-01-20T01:16:03.394Z,98412.22
2023-01-20T01:18:30.408Z,98433.28
2023-01-20T01:20:57.836Z,98411.03
2023-01-20T01:23:24.760Z,98404.63
2023-01-20T01:25:51.679Z,98401.78
2023-01-20T01:28:18.682Z,98406.88
2023-01-20T01:30:45.656Z,98395.88
2023-01-20T01:33:12.600Z,98401.63
2023-01-20T01:35:39.576Z,98403.31
2023-01-20T01:38:06.458Z,98414.53
2023-01-20T01:40:34.497Z,98422.69
2023-01-20T01:43:01.539Z,98409.38
2023-01-20T01:45:30.800Z,98417.16
2023-01-20T01:48:09.751Z,98407.53
2023-01-20T01:50:44.527Z,98399.47
2023-01-20T01:53:13.508Z,98398.94
2023-01-20T01:55:46.179Z,98375.84
2023-01-20T01:58:17.067Z,98401.28
2023-01-20T02:00:45.167Z,98391.66
2023-01-20T02:03:13.065Z,98398.06
2023-01-20T02:05:41.503Z,98395.31
2023-01-20T02:08:08.883Z,98386.34
2023-01-20T02:10:35.752Z,98385.91
2023-01-20T02:13:03.338Z,98383.22
2023-01-20T02:16:02.314Z,98390.44
2023-01-20T02:18:43.741Z,98388.38
2023-01-20T02:21:44.090Z,98387.72
2023-01-20T02:24:49.727Z,98371.13
2023-01-20T02:27:35.019Z,98398.16
2023-01-20T02:30:28.939Z,98384.66
2023-01-20T02:33:28.238Z,98372.06
2023-01-20T02:36:10.508Z,98374.91
2023-01-20T02:38:46.839Z,98364.13
2023-01-20T02:41:32.207Z,98367.41
2023-01-20T02:44:12.931Z,98367.41
2023-01-20T02:47:06.331Z,98353.78
2023-01-20T02:49:39.945Z,98349.06
2023-01-20T02:52:13.079Z,98354.38
2023-01-20T02:54:44.787Z,98361.06
2023-01-20T02:57:15.816Z,98355.69
2023-01-20T02:59:46.556Z,98354.66
2023-01-20T03:02:21.190Z,98364.13
2023-01-20T03:04:58.896Z,98369.38
2023-01-20T03:07:29.145Z,98370.03
2023-01-20T03:09:58.391Z,98382.78
2023-01-20T03:12:31.443Z,98385.63
2023-01-20T03:14:58.483Z,98385.19
2023-01-20T03:17:25.410Z,98379.34
2023-01-20T03:19:52.324Z,98373.75
2023-01-20T03:22:19.395Z,98384.81
2023-01-20T03:24:48.934Z,98367.91
2023-01-20T03:27:16.035Z,98378.97
2023-01-20T03:29:42.998Z,98381.03
2023-01-20T03:32:11.855Z,98376.66
2023-01-20T03:34:41.314Z,98375.22
2023-01-20T03:37:10.736Z,98377.47
2023-01-20T03:39:39.975Z,98384.47
2023-01-20T03:42:25.417Z,98372.00
2023-01-20T03:45:11.952Z,98367.06
2023-01-20T03:47:58.730Z,98364.50
2023-01-20T03:50:55.680Z,98357.28
2023-01-20T03:53:49.082Z,98349.19
2023-01-20T03:56:46.076Z,98359.88
2023-01-20T03:59:14.707Z,98353.81
2023-01-20T04:01:44.642Z,98330.94
2023-01-20T04:04:16.656Z,98337.63
2023-01-20T04:06:45.833Z,98338.25
2023-01-20T04:09:19.555Z,98339.78
2023-01-20T04:11:46.698Z,98337.28
2023-01-20T04:14:13.590Z,98334.16
2023-01-20T04:16:44.688Z,98336.56
2023-01-20T04:19:11.673Z,98321.50
2023-01-20T04:21:48.483Z,98326.41
2023-01-20T04:24:29.454Z,98321.66
2023-01-20T04:26:56.356Z,98341.09
2023-01-20T04:29:23.242Z,98341.53
2023-01-20T04:31:50.375Z,98336.28
2023-01-20T04:34:17.319Z,98355.44
2023-01-20T04:36:44.193Z,98360.97
2023-01-20T04:39:11.110Z,98360.34
2023-01-20T04:41:38.003Z,98360.50
2023-01-20T04:44:21.613Z,98362.81
2023-01-20T04:46:48.827Z,98355.59
2023-01-20T04:49:16.110Z,98354.06
2023-01-20T04:51:43.091Z,98348.38
2023-01-20T04:54:11.448Z,98359.53
2023-01-20T04:56:38.674Z,98355.88
2023-01-20T04:59:05.643Z,98360.97
2023-01-20T05:01:32.768Z,98334.59
2023-01-20T05:03:59.676Z,98349.00
2023-01-20T05:06:28.125Z,98326.19
2023-01-20T05:08:55.706Z,98319.75
2023-01-20T05:11:22.971Z,98327.69
2023-01-20T05:13:49.853Z,98324.13
2023-01-20T05:16:23.226Z,98298.66
2023-01-20T05:18:50.445Z,98310.47
2023-01-20T05:21:17.447Z,98307.25
2023-01-20T05:23:44.331Z,98311.78
2023-01-20T05:26:11.569Z,98313.91
2023-01-20T05:28:38.513Z,98324.97
2023-01-20T05:31:05.512Z,98339.47
2023-01-20T05:33:32.556Z,98321.28
2023-01-20T05:35:59.661Z,98343.97
2023-01-20T05:38:26.528Z,98366.09
2023-01-20T05:41:00.090Z,98361.97
2023-01-20T05:43:27.229Z,98375.88
2023-01-20T05:45:55.215Z,98370.13
2023-01-20T05:48:22.200Z,98350.16
2023-01-20T05:50:49.508Z,98365.44
2023-01-20T05:53:17.218Z,98364.38
2023-01-20T05:55:44.773Z,98363.34
2023-01-20T05:58:12.066Z,98365.81
2023-01-20T06:00:39.363Z,98357.97
2023-01-20T06:03:06.282Z,98350.03
2023-01-20T06:05:33.424Z,98347.63
2023-01-20T06:08:00.614Z,98325.94
2023-01-20T06:10:30.409Z,98340.13
2023-01-20T06:12:57.408Z,98333.44
2023-01-20T06:15:25.461Z,98336.75
2023-01-20T06:17:55.524Z,98332.53
2023-01-20T06:20:22.874Z,98342.66
2023-01-20T06:22:49.765Z,98321.09
2023-01-20T06:25:17.321Z,98361.81
2023-01-20T06:27:44.423Z,98354.16
2023-01-20T06:30:11.841Z,98362.16
2023-01-20T06:32:38.659Z,98350.53
2023-01-20T06:35:06.398Z,98358.59
2023-01-20T06:37:33.267Z,98343.25
2023-01-20T06:40:00.149Z,98347.34
2023-01-20T06:42:27.050Z,98339.47
2023-01-20T06:44:53.872Z,98335.53
2023-01-20T06:47:20.869Z,98324.59
2023-01-20T06:49:47.779Z,98322.13
2023-01-20T06:52:14.758Z,98305.78
2023-01-20T06:54:41.578Z,98305.69
2023-01-20T06:57:09.190Z,98298.53
2023-01-20T06:59:36.078Z,98311.94
2023-01-20T07:02:03.026Z,98305.69
2023-01-20T07:04:29.963Z,98307.44
2023-01-20T07:06:56.808Z,98320.81
2023-01-20T07:09:23.930Z,98320.03
2023-01-20T07:11:50.794Z,98316.06
2023-01-20T07:14:17.702Z,98304.19
2023-01-20T07:16:44.653Z,98319.25
2023-01-20T07:19:12.242Z,98342.94
2023-01-20T07:21:39.282Z,98322.47
2023-01-20T07:24:06.584Z,98300.75
2023-01-20T07:26:33.780Z,98302.91
2023-01-20T07:29:01.027Z,98293.91
2023-01-20T07:31:31.360Z,98294.22
2023-01-20T07:33:58.780Z,98301.97
2023-01-20T07:36:26.438Z,98315.81
2023-01-20T07:38:53.866Z,98312.38
2023-01-20T07:41:21.747Z,98304.25
2023-01-20T07:43:51.792Z,98317.28
2023-01-20T07:46:19.951Z,98300.25
2023-01-20T07:48:46.901Z,98321.63
2023-01-20T07:51:19.003Z,98332.88
2023-01-20T07:53:48.256Z,98327.03
2023-01-20T07:56:21.236Z,98322.97
2023-01-20T07:58:50.680Z,98315.03
2023-01-20T08:01:23.938Z,98308.00
2023-01-20T08:03:51.997Z,98294.47
2023-01-20T08:06:21.113Z,98297.56
2023-01-20T08:08:48.975Z,98272.94
2023-01-20T08:11:17.953Z,98300.41
2023-01-20T08:13:45.659Z,98306.66
2023-01-20T08:16:15.449Z,98291.31
2023-01-20T08:18:43.430Z,98307.88
2023-01-20T08:21:23.912Z,98316.56
2023-01-20T08:23:51.301Z,98312.00
2023-01-20T08:26:19.606Z,98317.69
2023-01-20T08:28:47.662Z,98322.78
2023-01-20T08:31:18.274Z,98310.09
2023-01-20T08:33:46.829Z,98290.81
2023-01-20T08:36:18.630Z,98278.88
2023-01-20T08:38:46.839Z,98315.00
2023-01-20T08:41:36.005Z,98314.28
2023-01-20T08:44:05.376Z,98322.66
2023-01-20T08:46:33.146Z,98322.06
2023-01-20T08:49:00.332Z,98331.00
2023-01-20T08:51:32.920Z,98322.78
2023-01-20T08:54:01.727Z,98330.06
2023-01-20T08:56:30.398Z,98324.72
2023-01-20T08:58:58.662Z,98323.25
2023-01-20T09:01:31.810Z,98306.72
2023-01-20T09:04:05.850Z,98306.19
2023-01-20T09:06:50.467Z,98293.06
2023-01-20T09:09:20.597Z,98295.34
2023-01-20T09:11:51.641Z,98282.06
2023-01-20T09:14:23.629Z,98280.13
2023-01-20T09:16:51.796Z,98284.94
2023-01-20T09:19:18.758Z,98278.53
2023-01-20T09:21:46.010Z,98272.16
2023-01-20T09:24:13.015Z,98271.00
2023-01-20T09:26:41.739Z,98262.63
2023-01-20T09:29:13.815Z,98262.25
2023-01-20T09:31:46.648Z,98263.84
2023-01-20T09:34:19.536Z,98263.88
2023-01-20T09:36:54.254Z,98248.66
2023-01-20T09:39:40.172Z,98232.50
2023-01-20T09:42:41.949Z,98236.09
2023-01-20T09:45:22.849Z,98232.75
2023-01-20T09:47:50.573Z,98233.38
2023-01-20T09:51:13.351Z,98265.84
2023-01-20T09:54:07.198Z,98249.75
2023-01-20T09:56:40.583Z,98248.25
2023-01-20T09:59:16.099Z,98242.16
2023-01-20T10:01:47.685Z,98251.09
2023-01-20T10:04:25.479Z,98239.75
2023-01-20T10:06:57.593Z,98240.97
2023-01-20T10:09:50.209Z,98230.63
2023-01-20T10:12:28.571Z,98205.34
2023-01-20T10:15:17.886Z,98232.50
2023-01-20T10:18:00.350Z,98229.31
2023-01-20T10:20:35.727Z,98200.59
2023-01-20T10:23:05.748Z,98197.41
2023-01-20T10:25:50.318Z,98185.81
2023-01-20T10:28:28.859Z,98157.78
2023-01-20T10:31:04.281Z,98179.19
2023-01-20T10:33:39.098Z,98153.88
2023-01-20T10:36:14.857Z,98174.63
2023-01-20T10:38:55.995Z,98192.88
2023-01-20T10:41:35.084Z,98180.47
2023-01-20T10:44:06.271Z,98165.88
2023-01-20T10:47:06.911Z,98175.44
2023-01-20T10:50:06.176Z,98177.75
2023-01-20T10:52:42.777Z,98160.41
2023-01-20T10:55:43.297Z,98161.81
2023-01-20T10:58:32.074Z,98163.75
2023-01-20T11:01:04.336Z,98176.16
2023-01-20T11:03:43.578Z,98188.16
2023-01-20T11:06:19.553Z,98174.31
2023-01-20T11:08:47.098Z,98175.84
2023-01-20T11:11:19.606Z,98169.44
2023-01-20T11:13:47.008Z,98179.38
2023-01-20T11:16:23.179Z,98169.78
2023-01-20T11:19:00.401Z,98180.78
2023-01-20T11:21:31.205Z,98166.09
2023-01-20T11:23:59.622Z,98177.47
2023-01-20T11:26:35.612Z,98181.50
2023-01-20T11:29:10.042Z,98181.53
2023-01-20T11:31:44.591Z,98171.88
2023-01-20T11:34:33.442Z,98160.06
2023-01-20T11:37:03.287Z,98163.72
2023-01-20T11:39:50.777Z,98174.03
2023-01-20T11:42:26.014Z,98165.41
2023-01-20T11:45:20.674Z,98159.00
2023-01-20T11:48:16.325Z,98164.50
2023-01-20T11:50:57.590Z,98182.19
2023-01-20T11:53:26.784Z,98198.09
2023-01-20T11:56:02.200Z,98169.88
2023-01-20T11:58:47.749Z,98182.78
2023-01-20T12:01:25.607Z,98164.84
2023-01-20T12:03:59.869Z,98164.47
2023-01-20T12:06:49.085Z,98158.81
2023-01-20T12:09:20.140Z,98166.78
2023-01-20T12:11:53.754Z,98145.97
2023-01-20T12:14:42.322Z,98143.97
2023-01-20T12:17:15.812Z,98142.53
2023-01-20T12:20:49.166Z,98147.25
2023-01-20T12:23:48.374Z,98144.28
2023-01-20T12:26:18.199Z,98153.81
2023-01-20T12:28:58.566Z,98154.47
2023-01-20T12:31:25.743Z,98152.56
2023-01-20T12:34:05.241Z,98143.72
2023-01-20T12:36:49.747Z,98137.38
2023-01-20T12:39:55.710Z,98140.28
2023-01-20T12:42:35.322Z,98134.25
2023-01-20T12:45:28.937Z,98136.72
2023-01-20T12:48:17.605Z,98131.13
2023-01-20T12:50:53.214Z,98141.97
2023-01-20T12:53:46.673Z,98138.44
2023-01-20T12:56:42.522Z,98138.81
2023-01-20T12:59:30.192Z,98047.59
2023-01-20T13:02:38.792Z,98097.19
2023-01-20T13:05:24.649Z,98094.88
2023-01-20T13:08:17.537Z,98069.50
2023-01-20T13:10:51.557Z,98040.94
2023-01-20T13:13:56.929Z,98022.66
2023-01-20T13:16:30.368Z,98007.38
2023-01-20T13:19:05.868Z,98024.22
2023-01-20T13:21:34.590Z,98007.50
2023-01-20T13:24:04.846Z,98018.88
2023-01-20T13:26:33.027Z,98008.38
2023-01-20T13:29:00.730Z,98004.00
2023-01-20T13:31:36.853Z,98018.59
2023-01-20T13:34:22.237Z,98017.69
2023-01-20T13:37:23.605Z,97991.72
2023-01-20T13:39:51.660Z,98003.31
2023-01-20T13:42:36.487Z,98012.66
2023-01-20T13:45:12.869Z,98034.72
2023-01-20T13:47:58.813Z,98040.13
2023-01-20T13:50:36.321Z,98028.41
2023-01-20T13:53:11.406Z,98030.00
2023-01-20T13:55:43.977Z,98045.91
2023-01-20T13:58:22.266Z,98041.19
2023-01-20T14:00:52.615Z,98028.28
2023-01-20T14:03:20.270Z,98042.72
2023-01-20T14:06:01.790Z,98038.88
2023-01-20T14:08:44.847Z,98046.81
2023-01-20T14:11:14.668Z,98057.03
2023-01-20T14:13:50.822Z,98063.97
2023-01-20T14:16:25.710Z,98061.41
2023-01-20T14:18:55.219Z,98086.66
2023-01-20T14:21:25.260Z,98065.31
2023-01-20T14:23:52.440Z,98079.03
2023-01-20T14:26:30.766Z,98086.56
2023-01-20T14:29:01.000Z,98071.72
2023-01-20T14:31:36.739Z,98042.44
2023-01-20T14:34:18.901Z,98060.97
2023-01-20T14:36:46.685Z,98068.69
2023-01-20T14:39:22.891Z,98062.03
2023-01-20T14:41:51.534Z,98078.91
2023-01-20T14:44:32.680Z,98071.34
2023-01-20T14:47:02.840Z,98067.25
2023-01-20T14:49:36.117Z,98025.00
2023-01-20T14:52:04.566Z,98030.88
2023-01-20T14:54:45.222Z,98036.03
2023-01-20T14:57:28.309Z,98052.69
2023-01-20T15:00:05.372Z,98056.91
2023-01-20T15:02:34.917Z,98068.97
2023-01-20T15:05:02.388Z,98077.03
2023-01-20T15:07:29.568Z,98086.41
2023-01-20T15:10:09.840Z,98112.78
2023-01-20T15:12:47.185Z,98114.13
2023-01-20T15:15:27.770Z,98097.06
2023-01-20T15:18:23.781Z,98096.63
2023-01-20T15:21:15.546Z,98095.97
2023-01-20T15:23:45.964Z,98072.19
2023-01-20T15:26:31.318Z,98067.84
2023-01-20T15:29:04.604Z,98062.56
2023-01-20T15:31:33.184Z,98081.72
2023-01-20T15:34:00.176Z,98071.97
2023-01-20T15:36:30.208Z,98075.19
2023-01-20T15:38:57.295Z,98095.50
2023-01-20T15:41:26.733Z,98078.56
2023-01-20T15:43:53.620Z,98083.22
2023-01-20T15:46:20.722Z,98077.16
2023-01-20T15:48:47.630Z,98075.28
2023-01-20T15:51:20.001Z,98075.03
2023-01-20T15:53:56.859Z,98074.38
2023-01-20T15:56:27.987Z,98063.16
2023-01-20T15:58:55.351Z,98067.91
2023-01-20T16:01:25.628Z,98057.50
2023-01-20T16:03:55.373Z,98075.88
2023-01-20T16:07:40.059Z,98075.97
2023-01-20T16:10:07.913Z,98083.88
2023-01-20T16:12:34.864Z,98073.56
2023-01-20T16:15:01.869Z,98076.69
2023-01-20T16:17:31.532Z,98068.06
2023-01-20T16:19:58.449Z,98081.72
2023-01-20T16:22:25.512Z,98071.41
2023-01-20T16:24:52.650Z,98075.44
2023-01-20T16:27:21.950Z,98083.22
2023-01-20T16:29:49.638Z,98107.22
2023-01-20T16:32:18.756Z,98102.41
2023-01-20T16:34:47.002Z,98100.09
2023-01-20T16:37:14.853Z,98108.22
2023-01-20T16:39:42.562Z,98107.13
2023-01-20T16:42:14.912Z,98117.44
2023-01-20T16:44:57.329Z,98124.66
2023-01-20T16:47:30.803Z,98110.28
2023-01-20T16:49:58.383Z,98121.50
2023-01-20T16:52:25.901Z,98121.59
2023-01-20T16:54:53.759Z,98125.97
2023-01-20T16:57:20.856Z,98117.84
2023-01-20T16:59:47.971Z,98115.13
2023-01-20T17:02:20.437Z,98109.53
2023-01-20T17:04:47.828Z,98099.75
2023-01-20T17:07:36.263Z,98118.25
2023-01-20T17:10:05.920Z,98117.78
2023-01-20T17:12:35.545Z,98103.91
2023-01-20T17:15:06.692Z,98110.56
2023-01-20T17:20:32.480Z,98138.31
2023-01-20T17:25:40.206Z,98168.97
2023-01-20T17:28:07.188Z,98174.94
2023-01-20T17:30:34.245Z,98171.38
2023-01-20T17:33:02.104Z,98176.34
2023-01-20T17:35:30.011Z,98173.34
2023-01-20T17:37:57.964Z,98176.34
2023-01-20T17:40:25.486Z,98185.88
2023-01-20T17:42:53.816Z,98196.91
2023-01-20T17:45:20.735Z,98207.59
2023-01-20T17:47:59.021Z,98216.66
2023-01-20T17:50:29.014Z,98216.09
2023-01-20T17:53:03.694Z,98221.88
2023-01-20T17:55:30.727Z,98235.22
2023-01-20T17:57:57.576Z,98235.72
2023-01-20T18:00:24.692Z,98308.72
2023-01-20T18:02:54.714Z,98323.09
2023-01-20T18:05:21.615Z,98331.34
2023-01-20T18:07:50.186Z,98334.84
2023-01-20T18:13:23.741Z,98359.69
2023-01-20T18:15:52.661Z,98372.88
2023-01-20T18:18:19.760Z,98381.28
2023-01-20T18:20:46.906Z,98400.50
2023-01-20T18:23:14.293Z,98398.84
2023-01-20T18:25:53.255Z,98413.84
2023-01-20T18:28:27.695Z,98421.19
2023-01-20T18:31:10.512Z,98420.53
2023-01-20T18:33:39.936Z,98435.56
2023-01-20T18:36:14.701Z,98443.94
2023-01-20T18:38:46.060Z,98448.69
2023-01-20T18:41:14.982Z,98468.53
2023-01-20T18:43:42.440Z,98474.50
2023-01-20T18:46:10.041Z,98473.47
2023-01-20T18:48:49.025Z,98494.22
2023-01-20T18:51:20.538Z,98503.03
2023-01-20T18:53:55.779Z,98509.69
2023-01-20T18:56:23.829Z,98531.13
2023-01-20T18:58:50.992Z,98531.72
2023-01-20T19:01:25.569Z,98571.53
2023-01-20T19:03:53.873Z,98567.16
2023-01-20T19:06:24.812Z,98585.06
2023-01-20T19:08:52.756Z,98600.97
2023-01-20T19:11:23.573Z,98605.47
2023-01-20T19:13:54.046Z,98597.50
2023-01-20T19:16:27.269Z,98585.16
2023-01-20T19:18:59.707Z,98591.03
2023-01-20T19:21:27.638Z,98604.97
2023-01-20T19:24:01.337Z,98600.63
2023-01-20T19:26:29.497Z,98618.53
2023-01-20T19:29:05.083Z,98624.09
2023-01-20T19:31:38.424Z,98635.13
2023-01-20T19:34:08.187Z,98643.50
2023-01-20T19:36:36.924Z,98657.69
2023-01-20T19:39:06.010Z,98668.72
2023-01-20T19:41:35.428Z,98654.03
2023-01-20T19:44:05.710Z,98667.41
2023-01-20T19:46:35.685Z,98677.91
2023-01-20T19:49:08.666Z,98671.63
2023-01-20T19:51:38.218Z,98668.81
2023-01-20T19:54:06.877Z,98675.09
2023-01-20T19:56:36.115Z,98677.72
2023-01-20T19:59:03.881Z,98687.22
2023-01-20T20:01:34.639Z,98681.53
2023-01-20T20:04:22.082Z,98680.94
2023-01-20T20:06:49.932Z,98675.88
2023-01-20T20:09:24.427Z,98694.59
2023-01-20T20:11:51.785Z,98684.44
2023-01-20T20:14:22.198Z,98686.19
2023-01-20T20:16:54.172Z,98678.00
2023-01-20T20:19:23.288Z,98689.22
2023-01-20T20:21:55.157Z,98676.47
2023-01-20T20:24:25.486Z,98671.13
2023-01-20T20:26:52.535Z,98657.63
2023-01-20T20:29:19.867Z,98664.66
2023-01-20T20:31:47.305Z,98658.06
2023-01-20T20:34:17.129Z,98676.25
2023-01-20T20:36:44.189Z,98689.22
2023-01-20T20:39:15.396Z,98687.50
2023-01-20T20:41:43.271Z,98705.59
2023-01-20T20:44:11.203Z,98705.50
2023-01-20T20:46:41.988Z,98705.84
2023-01-20T20:49:14.721Z,98696.63
2023-01-20T20:51:41.932Z,98669.91
2023-01-20T20:54:11.957Z,98702.78
2023-01-20T20:56:38.945Z,98698.00
2023-01-20T20:59:05.727Z,98708.63
2023-01-20T21:01:34.594Z,98715.41
2023-01-20T21:04:03.284Z,98713.38
2023-01-20T21:06:42.627Z,98719.66
2023-01-20T21:09:09.900Z,98747.47
2023-01-20T21:11:38.359Z,98746.66
2023-01-20T21:14:12.695Z,98761.72
2023-01-20T21:16:40.586Z,98762.84
2023-01-20T21:19:08.226Z,98762.47
2023-01-20T21:21:35.385Z,98770.28
2023-01-20T21:24:02.280Z,98779.06
2023-01-20T21:26:30.734Z,98788.06
2023-01-20T21:29:01.874Z,98799.13
2023-01-20T21:31:31.459Z,98790.22
2023-01-20T21:33:59.211Z,98809.75
2023-01-20T21:36:27.114Z,98819.13
2023-01-20T21:38:54.585Z,98804.59
2023-01-20T21:41:21.692Z,98802.47
2023-01-20T21:44:07.583Z,98825.09
2023-01-20T21:46:40.253Z,98826.03
2023-01-20T21:49:27.239Z,98810.09
2023-01-20T21:52:13.500Z,98812.91
2023-01-20T21:54:41.576Z,98807.22
2023-01-20T21:57:10.329Z,98808.59
2023-01-20T21:59:37.798Z,98815.09
2023-01-20T22:02:05.193Z,98820.03
2023-01-20T22:04:32.755Z,98805.88
2023-01-20T22:06:59.964Z,98825.50
2023-01-20T22:09:26.933Z,98820.13
2023-01-20T22:11:53.817Z,98828.00
2023-01-20T22:14:20.649Z,98828.91
2023-01-20T22:16:47.448Z,98824.59
2023-01-20T22:19:15.114Z,98838.19
2023-01-20T22:21:42.225Z,98841.13
2023-01-20T22:24:11.176Z,98833.88
2023-01-20T22:26:38.317Z,98843.56
2023-01-20T22:29:05.191Z,98842.25
2023-01-20T22:31:34.193Z,98849.50
2023-01-20T22:34:05.266Z,98856.09
2023-01-20T22:36:33.396Z,98852.03
2023-01-20T22:39:00.511Z,98866.78
2023-01-20T22:41:27.581Z,98871.72
2023-01-20T22:43:55.876Z,98879.06
2023-01-20T22:46:25.639Z,98884.22
2023-01-20T22:48:52.759Z,98886.72
2023-01-20T22:51:21.838Z,98885.38
2023-01-20T22:53:49.019Z,98872.84
2023-01-20T22:56:21.754Z,98876.34
2023-01-20T22:58:48.798Z,98856.06
2023-01-20T23:01:18.893Z,98880.41
2023-01-20T23:03:46.650Z,98885.09
2023-01-20T23:06:14.651Z,98882.38
2023-01-20T23:08:42.128Z,98890.06
2023-01-20T23:11:14.828Z,98895.47
2023-01-20T23:13:42.304Z,98898.50
2023-01-20T23:16:15.008Z,98888.44
2023-01-20T23:18:41.922Z,98897.72
2023-01-20T23:21:08.776Z,98890.06
2023-01-20T23:23:35.692Z,98890.53
2023-01-20T23:26:09.803Z,98890.31
2023-01-20T23:28:36.712Z,98890.50
2023-01-20T23:31:06.622Z,98901.34
2023-01-20T23:33:33.856Z,98893.97
2023-01-20T23:36:15.585Z,98904.56
2023-01-20T23:38:43.883Z,98898.63
2023-01-20T23:41:11.969Z,98887.13
2023-01-20T23:43:39.103Z,98892.06
2023-01-20T23:46:06.860Z,98879.69
2023-01-20T23:48:34.759Z,98905.09
2023-01-20T23:51:02.644Z,98905.41
2023-01-20T23:53:31.929Z,98912.25
2023-01-20T23:56:12.415Z,98906.81
2023-01-20T23:58:39.726Z,98900.59
